sensor_id;sensor_type;location;lat;lon;timestamp;pressure;altitude;pressure_sealevel;temperature;humidity
17209;BME280;8720;48.488;9.202;2023-09-19T00:01:03;96719.88;;;21.24;58.00
17209;BME280;8720;48.488;9.202;2023-09-19T00:03:33;96719.25;;;21.21;57.91
17209;BME280;8720;48.488;9.202;2023-09-19T00:06:05;96725.31;;;21.23;57.63
17209;BME280;8720;48.488;9.202;2023-09-19T00:08:34;96717.41;;;21.21;58.02
17209;BME280;8720;48.488;9.202;2023-09-19T00:11:01;96719.44;;;21.18;57.99
17209;BME280;8720;48.488;9.202;2023-09-19T00:13:29;96725.84;;;21.15;58.07
17209;BME280;8720;48.488;9.202;2023-09-19T00:15:57;96722.53;;;21.12;57.90
17209;BME280;8720;48.488;9.202;2023-09-19T00:18:25;96722.22;;;21.16;57.57
17209;BME280;8720;48.488;9.202;2023-09-19T00:20:57;96725.72;;;21.17;57.96
17209;BME280;8720;48.488;9.202;2023-09-19T00:23:26;96723.94;;;21.17;58.15
17209;BME280;8720;48.488;9.202;2023-09-19T00:25:54;96720.19;;;21.20;57.62
17209;BME280;8720;48.488;9.202;2023-09-19T00:28:25;96713.91;;;21.21;58.02
17209;BME280;8720;48.488;9.202;2023-09-19T00:30:53;96724.03;;;21.16;58.22
17209;BME280;8720;48.488;9.202;2023-09-19T00:33:21;96721.16;;;21.19;58.17
17209;BME280;8720;48.488;9.202;2023-09-19T00:35:51;96707.44;;;21.12;57.94
17209;BME280;8720;48.488;9.202;2023-09-19T00:38:19;96728.06;;;21.21;58.16
17209;BME280;8720;48.488;9.202;2023-09-19T00:40:50;96731.56;;;21.22;57.96
17209;BME280;8720;48.488;9.202;2023-09-19T00:43:18;96721.28;;;21.17;58.13
17209;BME280;8720;48.488;9.202;2023-09-19T00:45:48;96730.63;;;21.23;58.14
17209;BME280;8720;48.488;9.202;2023-09-19T00:48:17;96724.56;;;21.21;58.32
17209;BME280;8720;48.488;9.202;2023-09-19T00:50:47;96732.75;;;21.18;57.92
17209;BME280;8720;48.488;9.202;2023-09-19T00:53:20;96724.03;;;21.16;58.61
17209;BME280;8720;48.488;9.202;2023-09-19T00:55:51;96728.41;;;21.17;58.27
17209;BME280;8720;48.488;9.202;2023-09-19T00:58:19;96729.13;;;21.19;58.51
17209;BME280;8720;48.488;9.202;2023-09-19T01:00:48;96729.88;;;21.21;58.70
17209;BME280;8720;48.488;9.202;2023-09-19T01:03:15;96732.44;;;21.22;58.52
17209;BME280;8720;48.488;9.202;2023-09-19T01:05:44;96737.75;;;21.22;58.48
17209;BME280;8720;48.488;9.202;2023-09-19T01:08:11;96733.16;;;21.24;58.27
17209;BME280;8720;48.488;9.202;2023-09-19T01:10:49;96741.28;;;21.23;58.60
17209;BME280;8720;48.488;9.202;2023-09-19T01:13:27;96740.28;;;21.24;58.33
17209;BME280;8720;48.488;9.202;2023-09-19T01:16:06;96731.81;;;21.19;58.51
17209;BME280;8720;48.488;9.202;2023-09-19T01:18:45;96746.59;;;21.23;58.58
17209;BME280;8720;48.488;9.202;2023-09-19T01:21:28;96731.19;;;21.15;58.66
17209;BME280;8720;48.488;9.202;2023-09-19T01:24:23;96733.38;;;21.21;58.51
17209;BME280;8720;48.488;9.202;2023-09-19T01:27:28;96736.03;;;21.21;58.72
17209;BME280;8720;48.488;9.202;2023-09-19T01:30:13;96736.91;;;21.22;58.63
17209;BME280;8720;48.488;9.202;2023-09-19T01:32:42;96740.63;;;21.19;58.92
17209;BME280;8720;48.488;9.202;2023-09-19T01:35:12;96742.31;;;21.20;59.34
17209;BME280;8720;48.488;9.202;2023-09-19T01:37:39;96737.75;;;21.22;58.74
17209;BME280;8720;48.488;9.202;2023-09-19T01:40:12;96736.78;;;21.23;59.13
17209;BME280;8720;48.488;9.202;2023-09-19T01:42:50;96737.53;;;21.25;59.13
17209;BME280;8720;48.488;9.202;2023-09-19T01:45:33;96746.47;;;21.24;59.13
17209;BME280;8720;48.488;9.202;2023-09-19T01:48:17;96746.03;;;21.18;59.18
17209;BME280;8720;48.488;9.202;2023-09-19T01:50:55;96753.84;;;21.21;58.76
17209;BME280;8720;48.488;9.202;2023-09-19T01:53:27;96758.19;;;21.22;59.24
17209;BME280;8720;48.488;9.202;2023-09-19T01:55:58;96763.50;;;21.22;59.14
17209;BME280;8720;48.488;9.202;2023-09-19T01:58:34;96760.84;;;21.22;58.81
17209;BME280;8720;48.488;9.202;2023-09-19T02:01:06;96733.16;;;20.99;58.80
17209;BME280;8720;48.488;9.202;2023-09-19T02:03:39;96756.28;;;21.11;58.93
17209;BME280;8720;48.488;9.202;2023-09-19T02:06:14;96758.41;;;21.06;58.99
17209;BME280;8720;48.488;9.202;2023-09-19T02:08:43;96786.81;;;21.18;58.74
17209;BME280;8720;48.488;9.202;2023-09-19T02:11:16;96788.22;;;21.11;58.69
17209;BME280;8720;48.488;9.202;2023-09-19T02:13:43;96769.59;;;21.11;58.83
17209;BME280;8720;48.488;9.202;2023-09-19T02:16:16;96758.16;;;20.84;58.87
17209;BME280;8720;48.488;9.202;2023-09-19T02:18:47;96768.22;;;21.06;58.86
17209;BME280;8720;48.488;9.202;2023-09-19T02:21:19;96788.41;;;21.08;58.93
17209;BME280;8720;48.488;9.202;2023-09-19T02:23:48;96790.53;;;21.03;58.92
17209;BME280;8720;48.488;9.202;2023-09-19T02:26:17;96782.72;;;21.00;58.87
17209;BME280;8720;48.488;9.202;2023-09-19T02:28:47;96790.53;;;21.03;58.93
17209;BME280;8720;48.488;9.202;2023-09-19T02:31:16;96758.25;;;20.70;58.93
17209;BME280;8720;48.488;9.202;2023-09-19T02:33:43;96758.16;;;20.84;58.99
17209;BME280;8720;48.488;9.202;2023-09-19T02:36:16;96804.59;;;21.05;58.87
17209;BME280;8720;48.488;9.202;2023-09-19T02:38:44;96728.66;;;20.62;58.85
17209;BME280;8720;48.488;9.202;2023-09-19T02:41:12;96743.97;;;20.58;58.88
17209;BME280;8720;48.488;9.202;2023-09-19T02:43:40;96747.91;;;20.53;59.13
17209;BME280;8720;48.488;9.202;2023-09-19T02:46:09;96711.81;;;20.36;58.78
17209;BME280;8720;48.488;9.202;2023-09-19T02:48:39;96794.22;;;20.88;59.20
17209;BME280;8720;48.488;9.202;2023-09-19T02:51:06;96797.41;;;20.80;59.22
17209;BME280;8720;48.488;9.202;2023-09-19T02:53:34;96798.16;;;20.83;59.07
17209;BME280;8720;48.488;9.202;2023-09-19T02:56:02;96776.63;;;20.73;59.46
17209;BME280;8720;48.488;9.202;2023-09-19T02:58:31;96791.34;;;20.78;59.48
17209;BME280;8720;48.488;9.202;2023-09-19T03:01:09;96790.69;;;20.75;59.44
17209;BME280;8720;48.488;9.202;2023-09-19T03:03:39;96736.41;;;20.40;59.39
17209;BME280;8720;48.488;9.202;2023-09-19T03:06:07;96704.06;;;20.21;59.42
17209;BME280;8720;48.488;9.202;2023-09-19T03:08:35;96792.69;;;20.71;59.48
17209;BME280;8720;48.488;9.202;2023-09-19T03:11:05;96827.50;;;20.81;59.65
17209;BME280;8720;48.488;9.202;2023-09-19T03:13:38;96800.25;;;20.77;59.61
17209;BME280;8720;48.488;9.202;2023-09-19T03:16:06;96801.53;;;20.84;59.19
17209;BME280;8720;48.488;9.202;2023-09-19T03:18:35;96798.66;;;20.75;59.47
17209;BME280;8720;48.488;9.202;2023-09-19T03:21:04;96801.66;;;20.83;59.88
17209;BME280;8720;48.488;9.202;2023-09-19T03:23:31;96809.84;;;20.93;59.26
17209;BME280;8720;48.488;9.202;2023-09-19T03:25:59;96781.75;;;20.76;59.30
17209;BME280;8720;48.488;9.202;2023-09-19T03:28:27;96738.97;;;20.54;59.39
17209;BME280;8720;48.488;9.202;2023-09-19T03:31:02;96740.03;;;20.51;59.49
17209;BME280;8720;48.488;9.202;2023-09-19T03:33:32;96822.63;;;21.00;59.65
17209;BME280;8720;48.488;9.202;2023-09-19T03:36:02;96820.75;;;21.02;59.50
17209;BME280;8720;48.488;9.202;2023-09-19T03:38:33;96803.72;;;20.92;59.56
17209;BME280;8720;48.488;9.202;2023-09-19T03:41:01;96790.06;;;20.84;59.39
17209;BME280;8720;48.488;9.202;2023-09-19T03:43:28;96741.09;;;20.61;59.21
17209;BME280;8720;48.488;9.202;2023-09-19T03:45:56;96760.91;;;20.70;59.57
17209;BME280;8720;48.488;9.202;2023-09-19T03:48:24;96798.16;;;20.95;59.39
17209;BME280;8720;48.488;9.202;2023-09-19T03:50:51;96824.38;;;21.14;59.24
17209;BME280;8720;48.488;9.202;2023-09-19T03:53:23;96800.97;;;21.06;59.48
17209;BME280;8720;48.488;9.202;2023-09-19T03:55:51;96743.69;;;20.63;59.27
17209;BME280;8720;48.488;9.202;2023-09-19T03:58:19;96749.53;;;20.68;59.30
17209;BME280;8720;48.488;9.202;2023-09-19T04:00:46;96833.84;;;21.18;59.66
17209;BME280;8720;48.488;9.202;2023-09-19T04:03:15;96838.75;;;21.11;59.65
17209;BME280;8720;48.488;9.202;2023-09-19T04:05:46;96828.53;;;21.05;59.73
17209;BME280;8720;48.488;9.202;2023-09-19T04:08:14;96837.69;;;21.14;59.74
17209;BME280;8720;48.488;9.202;2023-09-19T04:10:42;96832.06;;;21.18;59.73
17209;BME280;8720;48.488;9.202;2023-09-19T04:13:12;96817.78;;;21.19;59.62
17209;BME280;8720;48.488;9.202;2023-09-19T04:15:41;96767.50;;;20.77;59.93
17209;BME280;8720;48.488;9.202;2023-09-19T04:18:09;96799.56;;;21.01;59.85
17209;BME280;8720;48.488;9.202;2023-09-19T04:20:36;96761.00;;;20.81;60.02
17209;BME280;8720;48.488;9.202;2023-09-19T04:23:04;96817.25;;;21.14;59.68
17209;BME280;8720;48.488;9.202;2023-09-19T04:25:32;96822.88;;;21.10;59.81
17209;BME280;8720;48.488;9.202;2023-09-19T04:27:59;96767.59;;;20.75;59.83
17209;BME280;8720;48.488;9.202;2023-09-19T04:30:28;96824.78;;;21.08;59.96
17209;BME280;8720;48.488;9.202;2023-09-19T04:32:56;96826.75;;;21.06;59.44
17209;BME280;8720;48.488;9.202;2023-09-19T04:35:23;96833.09;;;21.03;59.75
17209;BME280;8720;48.488;9.202;2023-09-19T04:37:51;96836.91;;;20.99;59.48
17209;BME280;8720;48.488;9.202;2023-09-19T04:40:19;96806.03;;;20.84;59.57
17209;BME280;8720;48.488;9.202;2023-09-19T04:42:54;96817.06;;;20.78;59.43
17209;BME280;8720;48.488;9.202;2023-09-19T04:45:23;96836.44;;;20.80;59.71
17209;BME280;8720;48.488;9.202;2023-09-19T04:47:55;96837.94;;;20.84;59.85
17209;BME280;8720;48.488;9.202;2023-09-19T04:50:23;96821.31;;;20.68;59.73
17209;BME280;8720;48.488;9.202;2023-09-19T04:52:52;96830.78;;;20.72;59.98
17209;BME280;8720;48.488;9.202;2023-09-19T04:55:20;96842.16;;;20.74;59.70
17209;BME280;8720;48.488;9.202;2023-09-19T04:57:49;96824.03;;;20.54;59.82
17209;BME280;8720;48.488;9.202;2023-09-19T05:00:19;96851.53;;;20.67;60.14
17209;BME280;8720;48.488;9.202;2023-09-19T05:23:16;96844.09;;;20.45;60.38
17209;BME280;8720;48.488;9.202;2023-09-19T05:25:47;96848.91;;;20.53;60.72
17209;BME280;8720;48.488;9.202;2023-09-19T05:28:15;96847.53;;;20.60;60.72
17209;BME280;8720;48.488;9.202;2023-09-19T05:30:42;96851.53;;;20.67;60.35
17209;BME280;8720;48.488;9.202;2023-09-19T05:33:11;96859.81;;;20.75;60.10
17209;BME280;8720;48.488;9.202;2023-09-19T05:35:38;96862.81;;;20.83;60.32
17209;BME280;8720;48.488;9.202;2023-09-19T05:38:08;96855.41;;;20.88;60.13
17209;BME280;8720;48.488;9.202;2023-09-19T05:40:39;96861.41;;;21.04;60.21
17209;BME280;8720;48.488;9.202;2023-09-19T05:43:08;96866.94;;;21.14;59.73
17209;BME280;8720;48.488;9.202;2023-09-19T05:45:36;96867.16;;;21.23;59.77
17209;BME280;8720;48.488;9.202;2023-09-19T05:48:09;96850.44;;;21.21;59.67
17209;BME280;8720;48.488;9.202;2023-09-19T05:50:39;96874.88;;;21.40;59.62
17209;BME280;8720;48.488;9.202;2023-09-19T05:53:06;96878.56;;;21.50;59.17
17209;BME280;8720;48.488;9.202;2023-09-19T05:55:34;96887.94;;;21.56;59.70
17209;BME280;8720;48.488;9.202;2023-09-19T05:58:03;96891.91;;;21.63;59.30
17209;BME280;8720;48.488;9.202;2023-09-19T06:00:31;96890.63;;;21.68;59.22
17209;BME280;8720;48.488;9.202;2023-09-19T06:02:59;96897.31;;;21.74;58.86
17209;BME280;8720;48.488;9.202;2023-09-19T06:05:27;96895.28;;;21.78;58.91
17209;BME280;8720;48.488;9.202;2023-09-19T06:07:56;96908.22;;;21.84;58.91
17209;BME280;8720;48.488;9.202;2023-09-19T06:10:26;96910.56;;;21.88;59.10
17209;BME280;8720;48.488;9.202;2023-09-19T06:12:55;96920.88;;;21.93;59.05
17209;BME280;8720;48.488;9.202;2023-09-19T06:15:25;96924.28;;;21.95;58.35
17209;BME280;8720;48.488;9.202;2023-09-19T06:17:54;96917.38;;;21.92;58.89
17209;BME280;8720;48.488;9.202;2023-09-19T06:20:23;96933.69;;;21.88;58.59
17209;BME280;8720;48.488;9.202;2023-09-19T06:22:51;96926.09;;;21.82;58.98
17209;BME280;8720;48.488;9.202;2023-09-19T06:25:20;96926.22;;;21.80;58.81
17209;BME280;8720;48.488;9.202;2023-09-19T06:27:48;96933.44;;;21.78;58.81
17209;BME280;8720;48.488;9.202;2023-09-19T06:30:18;96942.38;;;21.77;58.92
17209;BME280;8720;48.488;9.202;2023-09-19T06:32:47;96939.63;;;21.79;59.04
17209;BME280;8720;48.488;9.202;2023-09-19T06:35:15;96948.44;;;21.79;58.71
17209;BME280;8720;48.488;9.202;2023-09-19T06:37:43;96956.38;;;21.81;59.01
17209;BME280;8720;48.488;9.202;2023-09-19T06:40:12;96954.63;;;21.80;58.80
17209;BME280;8720;48.488;9.202;2023-09-19T06:42:41;96948.38;;;21.81;58.91
17209;BME280;8720;48.488;9.202;2023-09-19T06:45:09;96957.13;;;21.83;59.47
17209;BME280;8720;48.488;9.202;2023-09-19T06:47:39;96954.25;;;21.86;59.39
17209;BME280;8720;48.488;9.202;2023-09-19T06:50:08;96970.84;;;21.89;58.95
17209;BME280;8720;48.488;9.202;2023-09-19T06:52:39;96965.34;;;21.92;58.94
17209;BME280;8720;48.488;9.202;2023-09-19T06:55:07;96966.06;;;21.94;59.06
17209;BME280;8720;48.488;9.202;2023-09-19T06:57:35;96968.63;;;21.96;59.00
17209;BME280;8720;48.488;9.202;2023-09-19T07:00:04;96975.44;;;22.00;58.84
17209;BME280;8720;48.488;9.202;2023-09-19T07:02:35;96973.53;;;22.02;59.29
17209;BME280;8720;48.488;9.202;2023-09-19T07:05:02;96972.34;;;22.06;59.10
17209;BME280;8720;48.488;9.202;2023-09-19T07:07:32;96976.50;;;22.10;59.01
17209;BME280;8720;48.488;9.202;2023-09-19T07:10:00;96973.63;;;22.13;59.14
17209;BME280;8720;48.488;9.202;2023-09-19T07:12:28;96972.34;;;22.18;59.09
17209;BME280;8720;48.488;9.202;2023-09-19T07:14:55;96971.59;;;22.29;59.21
17209;BME280;8720;48.488;9.202;2023-09-19T07:17:23;96972.91;;;22.47;59.09
17209;BME280;8720;48.488;9.202;2023-09-19T07:19:50;96974.81;;;22.70;59.13
17209;BME280;8720;48.488;9.202;2023-09-19T07:22:17;96968.63;;;22.93;59.12
17209;BME280;8720;48.488;9.202;2023-09-19T07:24:46;96979.81;;;23.22;58.45
17209;BME280;8720;48.488;9.202;2023-09-19T07:27:14;96982.38;;;23.47;57.94
17209;BME280;8720;48.488;9.202;2023-09-19T07:29:42;96988.41;;;23.73;58.02
17209;BME280;8720;48.488;9.202;2023-09-19T07:32:09;96990.44;;;24.04;57.49
17209;BME280;8720;48.488;9.202;2023-09-19T07:34:37;96994.97;;;24.37;57.00
17209;BME280;8720;48.488;9.202;2023-09-19T07:37:06;96996.91;;;24.68;56.79
17209;BME280;8720;48.488;9.202;2023-09-19T07:39:33;96997.47;;;24.93;56.40
17209;BME280;8720;48.488;9.202;2023-09-19T07:42:02;96998.44;;;25.14;55.22
17209;BME280;8720;48.488;9.202;2023-09-19T07:44:30;96998.13;;;25.29;55.04
17209;BME280;8720;48.488;9.202;2023-09-19T07:46:57;97008.19;;;25.36;54.10
17209;BME280;8720;48.488;9.202;2023-09-19T07:49:24;97008.09;;;25.38;53.40
17209;BME280;8720;48.488;9.202;2023-09-19T07:51:52;97006.38;;;25.37;54.13
17209;BME280;8720;48.488;9.202;2023-09-19T07:54:20;97008.91;;;25.38;53.63
17209;BME280;8720;48.488;9.202;2023-09-19T07:56:48;97014.06;;;25.41;53.83
17209;BME280;8720;48.488;9.202;2023-09-19T07:59:16;97021.97;;;25.43;53.80
17209;BME280;8720;48.488;9.202;2023-09-19T08:01:43;97024.66;;;25.43;53.46
17209;BME280;8720;48.488;9.202;2023-09-19T08:04:11;97020.25;;;25.42;52.94
17209;BME280;8720;48.488;9.202;2023-09-19T08:06:38;97021.50;;;25.38;53.01
17209;BME280;8720;48.488;9.202;2023-09-19T08:09:05;97025.13;;;25.37;52.82
17209;BME280;8720;48.488;9.202;2023-09-19T08:11:36;97033.28;;;25.35;52.76
17209;BME280;8720;48.488;9.202;2023-09-19T08:14:05;97031.72;;;25.33;52.21
17209;BME280;8720;48.488;9.202;2023-09-19T08:16:35;97030.25;;;25.29;51.92
17209;BME280;8720;48.488;9.202;2023-09-19T08:19:03;97044.88;;;25.24;52.42
17209;BME280;8720;48.488;9.202;2023-09-19T08:21:31;97045.38;;;25.18;52.16
17209;BME280;8720;48.488;9.202;2023-09-19T08:23:58;97051.38;;;25.11;52.36
17209;BME280;8720;48.488;9.202;2023-09-19T08:26:28;97045.81;;;25.03;52.25
17209;BME280;8720;48.488;9.202;2023-09-19T08:28:56;97053.22;;;24.99;51.87
17209;BME280;8720;48.488;9.202;2023-09-19T08:31:23;97056.88;;;24.98;52.17
17209;BME280;8720;48.488;9.202;2023-09-19T08:33:53;97055.16;;;24.97;51.69
17209;BME280;8720;48.488;9.202;2023-09-19T08:36:21;97060.63;;;24.96;51.75
17209;BME280;8720;48.488;9.202;2023-09-19T08:38:49;97058.09;;;24.94;51.67
17209;BME280;8720;48.488;9.202;2023-09-19T08:41:17;97069.88;;;24.92;51.34
17209;BME280;8720;48.488;9.202;2023-09-19T08:43:45;97070.03;;;24.90;51.08
17209;BME280;8720;48.488;9.202;2023-09-19T08:46:15;97068.34;;;24.89;50.80
17209;BME280;8720;48.488;9.202;2023-09-19T08:48:54;97079.13;;;24.88;51.20
17209;BME280;8720;48.488;9.202;2023-09-19T08:51:32;97077.59;;;24.85;51.33
17209;BME280;8720;48.488;9.202;2023-09-19T08:54:07;97076.84;;;24.83;50.62
17209;BME280;8720;48.488;9.202;2023-09-19T08:56:36;97070.78;;;24.81;51.06
17209;BME280;8720;48.488;9.202;2023-09-19T08:59:06;97075.38;;;24.79;50.61
17209;BME280;8720;48.488;9.202;2023-09-19T09:01:35;97082.19;;;24.83;51.02
17209;BME280;8720;48.488;9.202;2023-09-19T09:04:09;97069.78;;;24.82;51.21
17209;BME280;8720;48.488;9.202;2023-09-19T09:06:41;97085.81;;;24.93;51.35
17209;BME280;8720;48.488;9.202;2023-09-19T09:09:09;97058.59;;;24.88;51.22
17209;BME280;8720;48.488;9.202;2023-09-19T09:11:38;97083.88;;;25.06;50.71
17209;BME280;8720;48.488;9.202;2023-09-19T09:14:07;97083.88;;;25.06;50.23
17209;BME280;8720;48.488;9.202;2023-09-19T09:16:34;97090.19;;;25.05;50.50
17209;BME280;8720;48.488;9.202;2023-09-19T09:19:01;97075.94;;;25.05;49.86
17209;BME280;8720;48.488;9.202;2023-09-19T09:21:30;97086.78;;;25.03;50.00
17209;BME280;8720;48.488;9.202;2023-09-19T09:24:26;97086.91;;;25.02;50.63
17209;BME280;8720;48.488;9.202;2023-09-19T09:26:53;97079.34;;;25.07;50.49
17209;BME280;8720;48.488;9.202;2023-09-19T09:29:42;97081.44;;;25.14;50.65
17209;BME280;8720;48.488;9.202;2023-09-19T09:32:21;97081.78;;;25.21;49.88
17209;BME280;8720;48.488;9.202;2023-09-19T09:34:53;97083.97;;;25.27;49.91
17209;BME280;8720;48.488;9.202;2023-09-19T09:37:23;97085.16;;;25.34;49.61
17209;BME280;8720;48.488;9.202;2023-09-19T09:39:52;97075.69;;;25.41;49.68
17209;BME280;8720;48.488;9.202;2023-09-19T09:42:33;97070.19;;;25.43;49.69
17209;BME280;8720;48.488;9.202;2023-09-19T09:45:23;97089.28;;;25.60;49.56
17209;BME280;8720;48.488;9.202;2023-09-19T09:48:04;97077.78;;;25.69;49.12
17209;BME280;8720;48.488;9.202;2023-09-19T09:50:48;97080.53;;;25.79;48.69
17209;BME280;8720;48.488;9.202;2023-09-19T09:53:24;97080.88;;;25.85;48.43
17209;BME280;8720;48.488;9.202;2023-09-19T09:56:02;97073.16;;;25.92;48.15
17209;BME280;8720;48.488;9.202;2023-09-19T09:58:32;97069.13;;;25.97;47.69
17209;BME280;8720;48.488;9.202;2023-09-19T10:01:01;97072.28;;;26.02;47.06
17209;BME280;8720;48.488;9.202;2023-09-19T10:03:36;97071.16;;;26.05;47.07
17209;BME280;8720;48.488;9.202;2023-09-19T10:06:08;97072.13;;;26.04;46.97
17209;BME280;8720;48.488;9.202;2023-09-19T10:09:06;97061.41;;;26.04;47.04
17209;BME280;8720;48.488;9.202;2023-09-19T10:11:43;97066.91;;;26.02;46.59
17209;BME280;8720;48.488;9.202;2023-09-19T10:14:12;97066.19;;;26.00;46.57
17209;BME280;8720;48.488;9.202;2023-09-19T10:16:45;97063.88;;;25.96;46.60
17209;BME280;8720;48.488;9.202;2023-09-19T10:19:20;97068.00;;;26.00;46.19
17209;BME280;8720;48.488;9.202;2023-09-19T10:21:53;97042.13;;;25.89;46.01
17209;BME280;8720;48.488;9.202;2023-09-19T10:24:26;97065.91;;;26.03;46.08
17209;BME280;8720;48.488;9.202;2023-09-19T10:26:55;97064.84;;;26.06;45.47
17209;BME280;8720;48.488;9.202;2023-09-19T10:29:26;97062.88;;;26.08;45.90
17209;BME280;8720;48.488;9.202;2023-09-19T10:31:59;97045.84;;;25.98;45.72
17209;BME280;8720;48.488;9.202;2023-09-19T10:34:30;97069.09;;;26.08;45.00
17209;BME280;8720;48.488;9.202;2023-09-19T10:37:00;97058.72;;;26.04;45.04
17209;BME280;8720;48.488;9.202;2023-09-19T10:39:33;97065.91;;;26.03;44.94
17209;BME280;8720;48.488;9.202;2023-09-19T10:42:04;97062.25;;;26.04;44.71
17209;BME280;8720;48.488;9.202;2023-09-19T10:44:33;97060.44;;;26.05;44.42
17209;BME280;8720;48.488;9.202;2023-09-19T10:47:00;97057.03;;;26.03;44.81
17209;BME280;8720;48.488;9.202;2023-09-19T10:49:28;97055.47;;;26.00;44.21
17209;BME280;8720;48.488;9.202;2023-09-19T10:52:00;97058.50;;;25.96;44.53
17209;BME280;8720;48.488;9.202;2023-09-19T10:54:33;97062.44;;;25.92;43.89
17209;BME280;8720;48.488;9.202;2023-09-19T10:57:03;97059.31;;;25.87;44.32
17209;BME280;8720;48.488;9.202;2023-09-19T10:59:31;97057.28;;;25.79;44.51
17209;BME280;8720;48.488;9.202;2023-09-19T11:02:16;97058.78;;;25.72;44.09
17209;BME280;8720;48.488;9.202;2023-09-19T11:04:44;97057.19;;;25.70;44.49
17209;BME280;8720;48.488;9.202;2023-09-19T11:07:15;97057.34;;;25.68;44.51
17209;BME280;8720;48.488;9.202;2023-09-19T11:09:52;97057.19;;;25.70;44.82
17209;BME280;8720;48.488;9.202;2023-09-19T11:12:48;97041.97;;;25.70;45.01
17209;BME280;8720;48.488;9.202;2023-09-19T11:18:52;97028.94;;;25.66;44.68
17209;BME280;8720;48.488;9.202;2023-09-19T11:21:54;97041.19;;;25.79;44.57
17209;BME280;8720;48.488;9.202;2023-09-19T11:24:31;97035.03;;;25.88;44.28
17209;BME280;8720;48.488;9.202;2023-09-19T11:27:27;97031.84;;;25.94;44.26
17209;BME280;8720;48.488;9.202;2023-09-19T11:30:26;97029.50;;;26.01;43.87
17209;BME280;8720;48.488;9.202;2023-09-19T11:33:24;97027.16;;;26.07;44.01
17209;BME280;8720;48.488;9.202;2023-09-19T11:36:02;97027.22;;;26.17;43.20
17209;BME280;8720;48.488;9.202;2023-09-19T11:38:58;97024.00;;;26.23;43.40
17209;BME280;8720;48.488;9.202;2023-09-19T11:41:40;97023.63;;;26.28;42.85
17209;BME280;8720;48.488;9.202;2023-09-19T11:44:34;97025.19;;;26.30;43.27
17209;BME280;8720;48.488;9.202;2023-09-19T11:47:08;97023.09;;;26.34;42.74
17209;BME280;8720;48.488;9.202;2023-09-19T11:49:40;97023.38;;;26.40;42.29
17209;BME280;8720;48.488;9.202;2023-09-19T11:52:09;97018.22;;;26.48;42.38
17209;BME280;8720;48.488;9.202;2023-09-19T11:54:37;97016.56;;;26.57;42.21
17209;BME280;8720;48.488;9.202;2023-09-19T11:57:09;97012.34;;;26.64;41.78
17209;BME280;8720;48.488;9.202;2023-09-19T11:59:39;97012.69;;;26.70;41.99
17209;BME280;8720;48.488;9.202;2023-09-19T12:02:07;97012.16;;;26.76;41.51
17209;BME280;8720;48.488;9.202;2023-09-19T12:04:38;97018.69;;;26.83;41.20
17209;BME280;8720;48.488;9.202;2023-09-19T12:07:08;97014.44;;;26.90;41.23
17209;BME280;8720;48.488;9.202;2023-09-19T12:09:43;97006.84;;;26.95;40.82
17209;BME280;8720;48.488;9.202;2023-09-19T12:12:19;97005.59;;;27.00;41.03
17209;BME280;8720;48.488;9.202;2023-09-19T12:14:50;97001.91;;;27.01;40.86
17209;BME280;8720;48.488;9.202;2023-09-19T12:17:17;97002.31;;;27.06;41.08
17209;BME280;8720;48.488;9.202;2023-09-19T12:19:51;96993.28;;;27.07;40.42
17209;BME280;8720;48.488;9.202;2023-09-19T12:22:19;96990.78;;;27.15;40.93
17209;BME280;8720;48.488;9.202;2023-09-19T12:24:47;96990.47;;;27.18;40.38
17209;BME280;8720;48.488;9.202;2023-09-19T12:27:15;96994.72;;;27.20;40.16
17209;BME280;8720;48.488;9.202;2023-09-19T12:29:44;96986.38;;;27.23;40.61
17209;BME280;8720;48.488;9.202;2023-09-19T12:32:13;96983.44;;;27.26;40.41
17209;BME280;8720;48.488;9.202;2023-09-19T12:34:50;96986.94;;;27.27;40.10
17209;BME280;8720;48.488;9.202;2023-09-19T12:37:18;96987.81;;;27.27;40.50
17209;BME280;8720;48.488;9.202;2023-09-19T12:39:51;96986.84;;;27.28;40.26
17209;BME280;8720;48.488;9.202;2023-09-19T12:42:23;96976.63;;;27.22;39.98
17209;BME280;8720;48.488;9.202;2023-09-19T12:44:52;96970.72;;;27.28;40.23
17209;BME280;8720;48.488;9.202;2023-09-19T12:47:24;96967.16;;;27.28;39.84
17209;BME280;8720;48.488;9.202;2023-09-19T12:50:11;96981.72;;;27.25;39.95
17209;BME280;8720;48.488;9.202;2023-09-19T12:52:46;96968.00;;;27.19;40.02
17209;BME280;8720;48.488;9.202;2023-09-19T12:55:26;96969.28;;;27.15;39.72
17209;BME280;8720;48.488;9.202;2023-09-19T12:58:08;96968.84;;;27.19;39.83
17209;BME280;8720;48.488;9.202;2023-09-19T13:00:40;96972.38;;;27.20;39.77
17209;BME280;8720;48.488;9.202;2023-09-19T13:03:17;96958.81;;;27.21;39.92
17209;BME280;8720;48.488;9.202;2023-09-19T13:05:52;96955.72;;;27.26;39.50
17209;BME280;8720;48.488;9.202;2023-09-19T13:08:23;96955.41;;;27.29;39.37
17209;BME280;8720;48.488;9.202;2023-09-19T13:11:07;96955.28;;;27.30;38.75
17209;BME280;8720;48.488;9.202;2023-09-19T13:13:42;96955.91;;;27.34;38.90
17209;BME280;8720;48.488;9.202;2023-09-19T13:16:14;96955.59;;;27.37;38.57
17209;BME280;8720;48.488;9.202;2023-09-19T13:18:49;96947.28;;;27.40;38.22
17209;BME280;8720;48.488;9.202;2023-09-19T13:21:28;96952.34;;;27.43;38.29
17209;BME280;8720;48.488;9.202;2023-09-19T13:24:20;96954.19;;;27.42;38.30
17209;BME280;8720;48.488;9.202;2023-09-19T13:26:48;96949.50;;;27.44;37.78
17209;BME280;8720;48.488;9.202;2023-09-19T13:29:16;96937.22;;;27.42;37.80
17209;BME280;8720;48.488;9.202;2023-09-19T13:31:47;96940.19;;;27.39;37.81
17209;BME280;8720;48.488;9.202;2023-09-19T13:34:15;96938.66;;;27.36;37.50
17209;BME280;8720;48.488;9.202;2023-09-19T13:36:44;96937.09;;;27.34;37.35
17209;BME280;8720;48.488;9.202;2023-09-19T13:39:13;96942.59;;;27.32;37.54
17209;BME280;8720;48.488;9.202;2023-09-19T13:41:41;96938.91;;;27.33;37.63
17209;BME280;8720;48.488;9.202;2023-09-19T13:44:09;96938.16;;;27.31;37.29
17209;BME280;8720;48.488;9.202;2023-09-19T13:46:37;96930.97;;;27.32;37.46
17209;BME280;8720;48.488;9.202;2023-09-19T13:49:04;96920.66;;;27.37;37.14
17209;BME280;8720;48.488;9.202;2023-09-19T13:51:33;96918.53;;;27.40;37.01
17209;BME280;8720;48.488;9.202;2023-09-19T13:54:01;96925.63;;;27.41;37.27
17209;BME280;8720;48.488;9.202;2023-09-19T13:56:28;96922.63;;;27.44;37.33